createdAt,value
2017-09-09T00:01:56.459Z,72.80
2017-09-09T00:04:23.105Z,72.90
2017-09-09T00:06:49.779Z,72.60
2017-09-09T00:09:16.436Z,72.80
2017-09-09T00:11:43.127Z,72.80
2017-09-09T00:14:09.817Z,72.70
2017-09-09T00:16:36.462Z,72.80
2017-09-09T00:19:03.137Z,72.80
2017-09-09T00:21:29.794Z,73.00
2017-09-09T00:23:56.472Z,73.00
2017-09-09T00:26:23.118Z,73.00
2017-09-09T00:28:49.816Z,73.00
2017-09-09T00:31:16.464Z,73.00
2017-09-09T00:33:43.111Z,73.00
2017-09-09T00:36:09.787Z,73.00
2017-09-09T00:38:36.439Z,73.00
2017-09-09T00:41:03.115Z,72.90
2017-09-09T00:43:29.766Z,72.90
2017-09-09T00:45:56.439Z,72.90
2017-09-09T00:48:23.084Z,73.10
2017-09-09T00:50:49.732Z,72.90
2017-09-09T00:53:16.414Z,73.00
2017-09-09T00:55:43.062Z,72.90
2017-09-09T00:58:09.742Z,72.90
2017-09-09T01:00:36.396Z,72.90
2017-09-09T01:03:03.051Z,72.90
2017-09-09T01:05:29.722Z,73.00
2017-09-09T01:07:56.379Z,72.80
2017-09-09T01:10:23.087Z,72.80
2017-09-09T01:12:55.792Z,72.90
2017-09-09T01:15:22.466Z,72.90
2017-09-09T01:17:49.143Z,73.00
2017-09-09T01:20:15.807Z,72.90
2017-09-09T01:22:42.516Z,73.00
2017-09-09T01:25:09.158Z,73.00
2017-09-09T01:27:35.859Z,72.90
2017-09-09T01:30:02.507Z,72.90
2017-09-09T01:32:29.155Z,72.90
2017-09-09T01:34:55.832Z,72.90
2017-09-09T01:37:22.474Z,72.80
2017-09-09T01:39:49.168Z,72.70
2017-09-09T01:45:04.801Z,72.70
2017-09-09T01:47:31.443Z,72.80
2017-09-09T01:49:58.095Z,72.80
2017-09-09T01:52:24.766Z,72.80
2017-09-09T01:54:51.415Z,72.80
2017-09-09T01:57:18.103Z,72.90
2017-09-09T01:59:44.758Z,72.80
2017-09-09T02:02:11.408Z,72.90
2017-09-09T02:04:38.086Z,72.80
2017-09-09T02:07:04.731Z,72.80
2017-09-09T02:09:31.419Z,72.90
2017-09-09T02:14:47.074Z,72.70
2017-09-09T02:17:13.723Z,72.70
2017-09-09T02:19:40.368Z,72.80
2017-09-09T02:22:07.443Z,72.80
2017-09-09T02:24:34.091Z,72.90
2017-09-09T02:27:00.766Z,72.80
2017-09-09T02:29:27.431Z,72.80
2017-09-09T02:31:54.471Z,72.90
2017-09-09T02:34:24.803Z,72.80
2017-09-09T02:36:51.455Z,72.90
2017-09-09T02:39:18.123Z,72.80
2017-09-09T02:41:44.788Z,72.90
2017-09-09T02:44:11.483Z,72.80
2017-09-09T02:46:38.135Z,72.90
2017-09-09T02:49:04.783Z,73.00
2017-09-09T02:51:31.460Z,72.80
2017-09-09T02:53:58.112Z,72.90
2017-09-09T02:56:24.799Z,72.90
2017-09-09T02:58:51.442Z,72.80
2017-09-09T03:01:18.127Z,72.90
2017-09-09T03:03:44.814Z,72.90
2017-09-09T03:06:11.490Z,72.90
2017-09-09T03:08:38.179Z,72.80
2017-09-09T03:11:04.843Z,72.80
2017-09-09T03:13:31.518Z,72.90
2017-09-09T03:15:58.180Z,72.90
2017-09-09T03:18:24.863Z,72.90
2017-09-09T03:20:51.519Z,72.90
2017-09-09T03:23:18.211Z,72.90
2017-09-09T03:25:44.883Z,72.90
2017-09-09T03:28:11.530Z,72.80
2017-09-09T03:30:38.200Z,72.80
2017-09-09T03:33:04.874Z,72.80
2017-09-09T03:35:31.642Z,72.90
2017-09-09T03:37:58.290Z,72.80
2017-09-09T03:40:24.939Z,72.90
2017-09-09T03:45:30.136Z,72.80
2017-09-09T03:47:56.814Z,72.90
2017-09-09T03:50:23.472Z,72.90
2017-09-09T03:52:50.165Z,72.90
2017-09-09T03:55:16.830Z,72.80
2017-09-09T03:57:43.491Z,72.80
2017-09-09T04:00:10.166Z,72.80
2017-09-09T04:02:36.817Z,72.80
2017-09-09T04:05:03.500Z,72.90
2017-09-09T04:07:30.807Z,72.90
2017-09-09T04:09:57.492Z,72.70
2017-09-09T04:15:18.523Z,72.80
2017-09-09T04:17:45.822Z,72.70
2017-09-09T04:20:12.467Z,72.80
2017-09-09T04:22:39.155Z,72.70
2017-09-09T04:25:06.198Z,72.80
2017-09-09T04:27:32.868Z,72.80
2017-09-09T04:30:00.084Z,72.70
2017-09-09T04:32:26.790Z,72.70
2017-09-09T04:34:53.447Z,72.80
2017-09-09T04:37:20.102Z,72.80
2017-09-09T04:39:46.777Z,72.80
2017-09-09T04:42:13.427Z,72.60
2017-09-09T04:44:40.099Z,72.70
2017-09-09T04:47:07.698Z,72.70
2017-09-09T04:49:34.379Z,72.70
2017-09-09T04:52:01.026Z,72.70
2017-09-09T04:54:27.671Z,72.70
2017-09-09T04:56:54.360Z,72.60
2017-09-09T04:59:21.016Z,72.70
2017-09-09T05:01:47.695Z,72.70
2017-09-09T05:04:14.352Z,72.70
2017-09-09T05:06:41.023Z,72.70
2017-09-09T05:09:07.679Z,72.70
2017-09-09T05:11:34.322Z,72.60
2017-09-09T05:14:02.975Z,72.60
2017-09-09T05:16:29.624Z,72.60
2017-09-09T05:18:56.290Z,72.70
2017-09-09T05:21:22.939Z,72.70
2017-09-09T05:23:49.610Z,72.70
2017-09-09T05:26:16.250Z,72.70
2017-09-09T05:28:42.900Z,72.70
2017-09-09T05:31:09.595Z,72.70
2017-09-09T05:33:36.242Z,72.60
2017-09-09T05:36:02.910Z,72.70
2017-09-09T05:38:29.558Z,72.60
2017-09-09T05:40:56.259Z,72.70
2017-09-09T05:43:22.907Z,72.70
2017-09-09T05:45:49.553Z,72.70
2017-09-09T05:48:16.253Z,72.60
2017-09-09T05:50:42.922Z,72.70
2017-09-09T05:53:09.601Z,72.70
2017-09-09T05:55:36.280Z,72.60
2017-09-09T05:58:03.686Z,72.70
2017-09-09T06:00:30.343Z,72.70
2017-09-09T06:02:57.006Z,72.60
2017-09-09T06:05:23.678Z,72.60
2017-09-09T06:07:50.540Z,72.60
2017-09-09T06:10:17.236Z,72.70
2017-09-09T06:15:27.404Z,72.60
2017-09-09T06:17:54.047Z,72.70
2017-09-09T06:20:20.691Z,72.60
2017-09-09T06:22:47.380Z,72.60
2017-09-09T06:25:14.028Z,72.70
2017-09-09T06:27:40.739Z,72.70
2017-09-09T06:30:07.391Z,72.60
2017-09-09T06:32:34.625Z,72.60
2017-09-09T06:35:01.307Z,72.60
2017-09-09T06:37:27.956Z,72.60
2017-09-09T06:39:54.658Z,72.70
2017-09-09T06:45:10.259Z,72.60
2017-09-09T06:47:36.915Z,72.60
2017-09-09T06:50:03.571Z,72.60
2017-09-09T06:52:31.658Z,72.70
2017-09-09T06:54:58.309Z,72.60
2017-09-09T06:57:25.571Z,72.60
2017-09-09T06:59:52.223Z,72.60
2017-09-09T07:02:19.270Z,72.60
2017-09-09T07:04:45.946Z,72.60
2017-09-09T07:07:12.594Z,72.70
2017-09-09T07:09:39.286Z,72.60
2017-09-09T07:12:06.466Z,72.70
2017-09-09T07:14:33.150Z,72.70
2017-09-09T07:16:59.821Z,72.60
2017-09-09T07:19:26.467Z,72.60
2017-09-09T07:21:53.140Z,72.50
2017-09-09T07:24:19.799Z,72.60
2017-09-09T07:26:46.475Z,72.60
2017-09-09T07:29:13.131Z,72.60
2017-09-09T07:31:40.316Z,72.60
2017-09-09T07:34:06.966Z,72.60
2017-09-09T07:36:33.663Z,72.60
2017-09-09T07:39:00.306Z,72.60
2017-09-09T07:41:26.965Z,72.60
2017-09-09T07:43:53.651Z,72.60
2017-09-09T07:46:20.303Z,72.60
2017-09-09T07:48:47.017Z,72.70
2017-09-09T07:51:13.667Z,72.60
2017-09-09T07:53:40.346Z,72.60
2017-09-09T07:56:06.991Z,72.60
2017-09-09T07:58:34.246Z,72.50
2017-09-09T08:01:00.897Z,72.60
2017-09-09T08:03:28.057Z,72.60
2017-09-09T08:05:54.727Z,72.70
2017-09-09T08:08:21.375Z,72.60
2017-09-09T08:10:48.047Z,72.60
2017-09-09T08:13:15.079Z,72.60
2017-09-09T08:15:41.750Z,72.60
2017-09-09T08:18:08.407Z,72.50
2017-09-09T08:20:35.054Z,72.70
2017-09-09T08:23:01.747Z,72.60
2017-09-09T08:25:28.390Z,72.60
2017-09-09T08:27:55.065Z,72.60
2017-09-09T08:30:21.711Z,72.60
2017-09-09T08:32:48.412Z,72.70
2017-09-09T08:35:15.083Z,72.70
2017-09-09T08:37:41.771Z,72.60
2017-09-09T08:40:08.446Z,72.50
2017-09-09T08:42:35.098Z,72.60
2017-09-09T08:45:01.778Z,72.80
2017-09-09T08:47:28.438Z,72.70
2017-09-09T08:49:55.101Z,72.90
2017-09-09T08:52:21.775Z,72.70
2017-09-09T08:54:49.427Z,72.80
2017-09-09T08:57:16.076Z,72.90
2017-09-09T08:59:42.722Z,72.80
2017-09-09T09:02:09.399Z,72.80
2017-09-09T09:04:36.071Z,72.70
2017-09-09T09:07:02.748Z,72.80
2017-09-09T09:09:29.407Z,72.80
2017-09-09T09:11:56.087Z,72.70
2017-09-09T09:14:22.743Z,72.70
2017-09-09T09:16:50.079Z,72.70
2017-09-09T09:19:16.726Z,72.60
2017-09-09T09:21:43.403Z,72.80
2017-09-09T09:24:10.076Z,72.70
2017-09-09T09:26:36.719Z,72.90
2017-09-09T09:29:03.391Z,72.90
2017-09-09T09:31:30.042Z,72.90
2017-09-09T09:33:56.722Z,73.00
2017-09-09T09:36:23.371Z,73.00
2017-09-09T09:38:50.016Z,73.00
2017-09-09T09:41:17.616Z,73.00
2017-09-09T09:43:44.276Z,72.80
2017-09-09T09:46:10.943Z,72.80
2017-09-09T09:48:37.586Z,72.90
2017-09-09T09:51:04.280Z,72.80
2017-09-09T09:53:30.934Z,72.90
2017-09-09T09:55:57.581Z,72.80
2017-09-09T09:58:24.255Z,72.70
2017-09-09T10:00:50.911Z,72.80
2017-09-09T10:03:18.293Z,72.90
2017-09-09T10:05:44.956Z,72.90
2017-09-09T10:08:11.680Z,72.80
2017-09-09T10:10:38.339Z,72.80
2017-09-09T10:13:04.986Z,73.00
2017-09-09T10:15:31.679Z,72.90
2017-09-09T10:17:58.334Z,73.10
2017-09-09T10:20:25.001Z,73.10
2017-09-09T10:22:51.647Z,73.20
2017-09-09T10:25:20.942Z,73.10
2017-09-09T10:27:48.244Z,73.40
2017-09-09T10:30:14.940Z,73.20
2017-09-09T10:32:41.591Z,73.00
2017-09-09T10:35:08.871Z,73.20
2017-09-09T10:37:35.550Z,73.10
2017-09-09T10:40:02.193Z,73.00
2017-09-09T10:45:17.983Z,73.10
2017-09-09T10:47:45.167Z,73.20
2017-09-09T10:50:11.822Z,73.10
2017-09-09T10:52:38.519Z,73.10
2017-09-09T10:55:05.171Z,73.00
2017-09-09T10:57:31.831Z,73.20
2017-09-09T10:59:58.502Z,73.30
2017-09-09T11:02:25.151Z,73.30
2017-09-09T11:04:51.826Z,73.10
2017-09-09T11:07:19.152Z,73.20
2017-09-09T11:09:45.846Z,73.10
2017-09-09T11:15:01.322Z,73.20
2017-09-09T11:17:28.005Z,73.10
2017-09-09T11:19:54.677Z,73.20
2017-09-09T11:22:21.331Z,73.30
2017-09-09T11:24:47.997Z,73.20
2017-09-09T11:27:15.135Z,73.20
2017-09-09T11:29:41.783Z,73.20
2017-09-09T11:32:08.854Z,73.20
2017-09-09T11:34:35.498Z,73.20
2017-09-09T11:37:02.179Z,73.20
2017-09-09T11:39:28.837Z,73.20
2017-09-09T11:41:56.823Z,73.30
2017-09-09T11:44:23.501Z,73.20
2017-09-09T11:46:50.148Z,73.20
2017-09-09T11:49:16.835Z,73.20
2017-09-09T11:51:43.483Z,73.00
2017-09-09T11:54:10.131Z,73.10
2017-09-09T11:56:36.814Z,73.10
2017-09-09T11:59:03.463Z,73.20
2017-09-09T12:01:30.167Z,73.20
2017-09-09T12:03:56.826Z,73.30
2017-09-09T12:06:23.496Z,73.20
2017-09-09T12:08:50.162Z,73.30
2017-09-09T12:11:16.802Z,73.30
2017-09-09T12:13:43.479Z,73.40
2017-09-09T12:16:10.132Z,73.40
2017-09-09T12:18:36.822Z,73.40
2017-09-09T12:21:04.008Z,73.40
2017-09-09T12:23:30.680Z,73.50
2017-09-09T12:25:57.369Z,73.60
2017-09-09T12:28:24.027Z,73.60
2017-09-09T12:30:50.702Z,73.50
2017-09-09T12:33:17.354Z,73.40
2017-09-09T12:35:44.030Z,73.60
2017-09-09T12:38:10.688Z,73.60
2017-09-09T12:40:37.914Z,73.70
2017-09-09T12:43:04.567Z,73.70
2017-09-09T12:45:31.607Z,73.60
2017-09-09T12:47:58.300Z,73.70
2017-09-09T12:50:24.951Z,73.60
2017-09-09T12:52:51.627Z,73.60
2017-09-09T12:55:18.274Z,73.50
2017-09-09T12:57:44.948Z,73.50
2017-09-09T13:00:11.610Z,73.40
2017-09-09T13:02:38.316Z,73.30
2017-09-09T13:05:04.975Z,73.30
2017-09-09T13:07:31.623Z,73.40
2017-09-09T13:09:58.313Z,73.40
2017-09-09T13:15:13.907Z,73.30
2017-09-09T13:17:40.560Z,73.30
2017-09-09T13:20:07.251Z,73.20
2017-09-09T13:22:33.907Z,73.30
2017-09-09T13:25:00.567Z,73.20
2017-09-09T13:27:27.239Z,73.10
2017-09-09T13:29:53.887Z,73.10
2017-09-09T13:32:20.558Z,73.20
2017-09-09T13:34:47.211Z,73.10
2017-09-09T13:37:13.941Z,73.10
2017-09-09T13:39:40.587Z,73.20
2017-09-09T13:42:07.234Z,73.10
2017-09-09T13:44:33.910Z,73.00
2017-09-09T13:47:00.564Z,73.00
2017-09-09T13:49:27.295Z,72.90
2017-09-09T13:51:53.966Z,72.90
2017-09-09T13:54:20.627Z,73.10
2017-09-09T13:56:47.299Z,73.10
2017-09-09T13:59:13.966Z,73.20
2017-09-09T14:01:40.667Z,73.00
2017-09-09T14:04:07.356Z,73.10
2017-09-09T14:06:33.999Z,73.00
2017-09-09T14:09:00.702Z,73.10
2017-09-09T14:11:27.360Z,73.10
2017-09-09T14:13:54.085Z,73.10
2017-09-09T14:16:21.471Z,73.00
2017-09-09T14:18:48.179Z,73.00
2017-09-09T14:21:14.830Z,73.00
2017-09-09T14:23:41.495Z,73.00
2017-09-09T14:26:08.167Z,73.00
2017-09-09T14:28:34.838Z,72.90
2017-09-09T14:31:01.527Z,72.90
2017-09-09T14:33:28.187Z,72.80
2017-09-09T14:35:54.862Z,73.00
2017-09-09T14:38:21.515Z,72.80
2017-09-09T14:40:48.206Z,72.80
2017-09-09T14:43:16.539Z,72.80
2017-09-09T14:45:43.188Z,72.80
2017-09-09T14:48:09.871Z,72.90
2017-09-09T14:50:36.519Z,73.00
2017-09-09T14:53:03.190Z,73.00
2017-09-09T14:55:29.835Z,73.00
2017-09-09T14:57:56.514Z,73.10
2017-09-09T15:00:23.171Z,73.10
2017-09-09T15:02:49.819Z,73.10
2017-09-09T15:05:16.495Z,73.10
2017-09-09T15:07:43.134Z,73.00
2017-09-09T15:10:09.804Z,73.10
2017-09-09T15:15:25.839Z,73.00
2017-09-09T15:17:52.482Z,73.10
2017-09-09T15:20:19.144Z,73.00
2017-09-09T15:22:45.815Z,72.90
2017-09-09T15:25:12.474Z,72.80
2017-09-09T15:27:39.168Z,72.80
2017-09-09T15:30:05.819Z,72.70
2017-09-09T15:32:32.499Z,72.80
2017-09-09T15:34:59.142Z,72.60
2017-09-09T15:37:26.188Z,72.80
2017-09-09T15:39:52.860Z,72.80
2017-09-09T15:45:08.155Z,72.60
2017-09-09T15:47:34.803Z,72.60
2017-09-09T15:50:01.474Z,72.70
2017-09-09T15:52:28.146Z,72.60
2017-09-09T15:54:54.819Z,72.50
2017-09-09T15:57:21.458Z,72.60
2017-09-09T15:59:48.098Z,72.70
2017-09-09T16:02:14.767Z,72.70
2017-09-09T16:04:41.418Z,72.50
2017-09-09T16:07:08.091Z,72.70
2017-09-09T16:09:34.738Z,72.60
2017-09-09T16:12:01.435Z,72.70
2017-09-09T16:14:28.083Z,72.70
2017-09-09T16:16:54.758Z,72.70
2017-09-09T16:19:21.407Z,72.60
2017-09-09T16:21:48.054Z,72.60
2017-09-09T16:24:20.843Z,72.60
2017-09-09T16:26:47.486Z,72.60
2017-09-09T16:29:14.158Z,72.70
2017-09-09T16:31:40.807Z,72.70
2017-09-09T16:34:08.243Z,72.70
2017-09-09T16:36:34.886Z,72.60
2017-09-09T16:39:01.571Z,72.70
2017-09-09T16:41:28.215Z,72.70
2017-09-09T16:43:54.920Z,72.80
2017-09-09T16:46:21.599Z,72.70
2017-09-09T16:48:48.246Z,72.70
2017-09-09T16:51:14.958Z,72.70
2017-09-09T16:53:41.673Z,72.80
2017-09-09T16:56:08.564Z,72.70
2017-09-09T16:58:35.216Z,72.70
2017-09-09T17:01:01.912Z,72.70
2017-09-09T17:03:28.566Z,72.80
2017-09-09T17:05:55.255Z,72.70
2017-09-09T17:08:21.931Z,72.70
2017-09-09T17:10:48.578Z,72.80
2017-09-09T17:13:15.259Z,72.70
2017-09-09T17:15:41.902Z,72.80
2017-09-09T17:18:08.586Z,72.70
2017-09-09T17:20:35.238Z,72.70
2017-09-09T17:23:01.934Z,72.80
2017-09-09T17:25:28.582Z,72.80
2017-09-09T17:27:55.226Z,72.70
2017-09-09T17:30:21.899Z,72.90
2017-09-09T17:32:48.555Z,72.80
2017-09-09T17:35:15.236Z,72.80
2017-09-09T17:37:41.887Z,72.80
2017-09-09T17:40:08.559Z,72.80
2017-09-09T17:45:23.786Z,73.00
2017-09-09T17:47:50.435Z,73.00
2017-09-09T17:50:17.084Z,72.90
2017-09-09T17:52:43.806Z,72.80
2017-09-09T17:55:10.452Z,72.90
2017-09-09T17:57:37.127Z,73.00
2017-09-09T18:00:03.770Z,72.80
2017-09-09T18:02:30.462Z,72.70
2017-09-09T18:04:57.110Z,72.90
2017-09-09T18:07:23.803Z,72.90
2017-09-09T18:09:50.450Z,72.90
2017-09-09T18:12:17.103Z,73.00
2017-09-09T18:14:46.199Z,72.90
2017-09-09T18:17:12.854Z,72.90
2017-09-09T18:19:39.527Z,73.00
2017-09-09T18:22:06.175Z,73.00
2017-09-09T18:24:32.850Z,72.90
2017-09-09T18:26:59.495Z,73.00
2017-09-09T18:29:26.198Z,73.00
2017-09-09T18:31:52.843Z,73.00
2017-09-09T18:37:04.865Z,73.00
2017-09-09T18:39:31.557Z,73.00
2017-09-09T18:41:58.202Z,73.00
2017-09-09T18:44:24.850Z,72.90
2017-09-09T18:46:51.523Z,72.90
2017-09-09T18:49:18.166Z,73.00
2017-09-09T18:51:44.879Z,72.90
2017-09-09T18:54:11.519Z,73.00
2017-09-09T18:56:38.198Z,73.00
2017-09-09T18:59:04.859Z,72.90
2017-09-09T19:01:31.534Z,73.00
2017-09-09T19:04:01.484Z,72.90
2017-09-09T19:06:28.160Z,73.00
2017-09-09T19:08:54.838Z,72.90
2017-09-09T19:11:21.498Z,72.90
2017-09-09T19:13:48.174Z,72.80
2017-09-09T19:16:14.846Z,72.80
2017-09-09T19:18:41.520Z,72.80
2017-09-09T19:21:08.163Z,72.80
2017-09-09T19:23:34.843Z,72.90
2017-09-09T19:26:01.892Z,72.80
2017-09-09T19:28:28.540Z,72.80
2017-09-09T19:30:55.218Z,72.80
2017-09-09T19:33:21.866Z,72.80
2017-09-09T19:35:48.539Z,72.70
2017-09-09T19:38:15.187Z,72.80
2017-09-09T19:40:41.867Z,72.70
2017-09-09T19:43:16.057Z,72.60
2017-09-09T19:45:42.752Z,72.60
2017-09-09T19:48:09.394Z,72.60
2017-09-09T19:50:36.038Z,72.70
2017-09-09T19:53:03.614Z,72.60
2017-09-09T19:55:30.267Z,72.60
2017-09-09T19:57:56.938Z,72.60
2017-09-09T20:00:23.583Z,72.60
2017-09-09T20:02:50.295Z,72.50
2017-09-09T20:05:16.956Z,72.50
2017-09-09T20:07:43.602Z,72.50
2017-09-09T20:10:10.278Z,72.50
2017-09-09T20:15:25.822Z,72.40
2017-09-09T20:17:52.478Z,72.40
2017-09-09T20:20:19.147Z,72.40
2017-09-09T20:22:45.795Z,72.40
2017-09-09T20:25:12.474Z,72.40
2017-09-09T20:27:39.142Z,72.30
2017-09-09T20:30:05.795Z,72.30
2017-09-09T20:32:32.495Z,72.30
2017-09-09T20:34:59.138Z,72.30
2017-09-09T20:37:25.810Z,72.20
2017-09-09T20:39:52.474Z,72.20
2017-09-09T20:42:19.150Z,72.20
2017-09-09T20:44:45.799Z,72.20
2017-09-09T20:47:12.446Z,72.10
2017-09-09T20:49:39.123Z,72.10
2017-09-09T20:52:05.773Z,72.10
2017-09-09T20:54:32.456Z,72.10
2017-09-09T20:56:59.137Z,72.00
2017-09-09T20:59:25.838Z,72.20
2017-09-09T21:01:52.482Z,72.00
2017-09-09T21:04:19.144Z,72.00
2017-09-09T21:06:45.821Z,72.00
2017-09-09T21:09:12.467Z,71.90
2017-09-09T21:11:39.138Z,72.00
2017-09-09T21:14:05.804Z,71.90
2017-09-09T21:16:32.474Z,71.90
2017-09-09T21:18:59.125Z,71.80
2017-09-09T21:21:25.836Z,71.90
2017-09-09T21:23:52.495Z,71.80
2017-09-09T21:26:19.143Z,71.80
2017-09-09T21:28:45.823Z,71.80
2017-09-09T21:31:12.470Z,71.90
2017-09-09T21:33:39.143Z,71.80
2017-09-09T21:36:05.795Z,71.60
2017-09-09T21:38:32.478Z,71.70
2017-09-09T21:40:59.127Z,71.60
2017-09-09T21:43:25.830Z,71.60
2017-09-09T21:45:52.491Z,71.70
2017-09-09T21:48:19.183Z,71.50
2017-09-09T21:50:45.863Z,71.60
2017-09-09T21:53:12.519Z,71.40
2017-09-09T21:55:39.199Z,71.60
2017-09-09T21:58:05.851Z,71.60
2017-09-09T22:00:32.523Z,71.50
2017-09-09T22:02:59.167Z,71.40
2017-09-09T22:05:25.860Z,71.30
2017-09-09T22:07:52.503Z,71.20
2017-09-09T22:10:19.150Z,71.30
2017-09-09T22:12:45.842Z,71.30
2017-09-09T22:15:12.482Z,71.20
2017-09-09T22:17:39.164Z,71.30
2017-09-09T22:20:05.814Z,71.30
2017-09-09T22:22:32.495Z,71.30
2017-09-09T22:24:59.152Z,71.20
2017-09-09T22:27:25.848Z,71.20
2017-09-09T22:29:52.903Z,71.20
2017-09-09T22:32:20.225Z,71.20
2017-09-09T22:34:46.903Z,71.10
2017-09-09T22:37:13.555Z,70.90
2017-09-09T22:39:40.978Z,70.90
2017-09-09T22:42:07.634Z,70.90
2017-09-09T22:44:34.312Z,71.10
2017-09-09T22:47:00.960Z,70.90
2017-09-09T22:49:27.863Z,70.90
2017-09-09T22:51:55.124Z,70.90
2017-09-09T22:54:21.762Z,70.90
2017-09-09T22:56:48.455Z,70.70
2017-09-09T22:59:15.107Z,70.70
2017-09-09T23:01:41.779Z,70.90
2017-09-09T23:04:08.464Z,70.90
2017-09-09T23:06:35.139Z,70.90
2017-09-09T23:09:01.868Z,70.90
2017-09-09T23:11:28.554Z,70.90
2017-09-09T23:13:55.218Z,70.90
2017-09-09T23:16:21.866Z,70.70
2017-09-09T23:18:48.939Z,70.70
2017-09-09T23:21:15.596Z,70.70
2017-09-09T23:23:42.271Z,70.70
2017-09-09T23:26:08.945Z,70.70
2017-09-09T23:28:35.650Z,70.60
2017-09-09T23:31:02.302Z,70.60
2017-09-09T23:33:28.992Z,70.60
2017-09-09T23:35:55.658Z,70.60
2017-09-09T23:38:22.298Z,70.70
2017-09-09T23:40:48.975Z,70.60
2017-09-09T23:43:16.983Z,70.40
2017-09-09T23:45:43.630Z,70.50
2017-09-09T23:48:10.323Z,70.60
2017-09-09T23:50:36.968Z,70.70
2017-09-09T23:53:03.640Z,70.70
2017-09-09T23:55:30.298Z,70.60
2017-09-09T23:57:56.986Z,70.50
